sensor_id;sensor_type;location;lat;lon;timestamp;temperature;humidity
14519;DHT22;7346;50.846;4.388;2022-10-17T00:02:15;16.90;99.90
14519;DHT22;7346;50.846;4.388;2022-10-17T00:04:42;16.90;99.90
14519;DHT22;7346;50.846;4.388;2022-10-17T00:07:10;16.90;99.90
14519;DHT22;7346;50.846;4.388;2022-10-17T00:09:46;17.00;99.90
14519;DHT22;7346;50.846;4.388;2022-10-17T00:12:27;16.90;99.90
14519;DHT22;7346;50.846;4.388;2022-10-17T00:14:53;16.90;99.90
14519;DHT22;7346;50.846;4.388;2022-10-17T00:17:20;16.90;99.90
14519;DHT22;7346;50.846;4.388;2022-10-17T00:19:47;17.00;99.90
14519;DHT22;7346;50.846;4.388;2022-10-17T00:22:16;17.00;99.90
14519;DHT22;7346;50.846;4.388;2022-10-17T00:24:42;16.90;99.90
14519;DHT22;7346;50.846;4.388;2022-10-17T00:27:09;16.90;99.90
14519;DHT22;7346;50.846;4.388;2022-10-17T00:29:36;16.90;99.90
14519;DHT22;7346;50.846;4.388;2022-10-17T00:32:03;16.90;99.90
14519;DHT22;7346;50.846;4.388;2022-10-17T00:34:30;16.90;99.90
14519;DHT22;7346;50.846;4.388;2022-10-17T00:36:57;16.90;99.90
14519;DHT22;7346;50.846;4.388;2022-10-17T00:39:26;17.00;99.90
14519;DHT22;7346;50.846;4.388;2022-10-17T00:41:54;17.00;99.90
14519;DHT22;7346;50.846;4.388;2022-10-17T00:47:42;17.10;99.90
14519;DHT22;7346;50.846;4.388;2022-10-17T00:50:16;17.10;99.90
14519;DHT22;7346;50.846;4.388;2022-10-17T00:52:45;17.10;99.90
14519;DHT22;7346;50.846;4.388;2022-10-17T00:55:17;17.20;99.90
14519;DHT22;7346;50.846;4.388;2022-10-17T00:57:46;17.20;99.90
14519;DHT22;7346;50.846;4.388;2022-10-17T01:00:15;17.20;99.90
14519;DHT22;7346;50.846;4.388;2022-10-17T01:02:43;17.20;99.90
14519;DHT22;7346;50.846;4.388;2022-10-17T01:05:11;17.30;99.90
14519;DHT22;7346;50.846;4.388;2022-10-17T01:07:40;17.30;99.90
14519;DHT22;7346;50.846;4.388;2022-10-17T01:10:08;17.30;99.90
14519;DHT22;7346;50.846;4.388;2022-10-17T01:15:38;17.40;99.90
14519;DHT22;7346;50.846;4.388;2022-10-17T01:18:14;17.30;99.90
14519;DHT22;7346;50.846;4.388;2022-10-17T01:21:24;17.40;99.90
14519;DHT22;7346;50.846;4.388;2022-10-17T01:24:14;17.40;99.90
14519;DHT22;7346;50.846;4.388;2022-10-17T01:26:58;17.40;99.90
14519;DHT22;7346;50.846;4.388;2022-10-17T01:29:47;17.30;99.90
14519;DHT22;7346;50.846;4.388;2022-10-17T01:32:22;17.30;99.90
14519;DHT22;7346;50.846;4.388;2022-10-17T01:34:56;17.30;99.90
14519;DHT22;7346;50.846;4.388;2022-10-17T01:37:31;17.30;99.90
14519;DHT22;7346;50.846;4.388;2022-10-17T01:40:09;17.40;99.90
14519;DHT22;7346;50.846;4.388;2022-10-17T01:42:43;17.30;99.90
14519;DHT22;7346;50.846;4.388;2022-10-17T01:45:16;17.40;99.90
14519;DHT22;7346;50.846;4.388;2022-10-17T01:47:47;17.40;99.90
14519;DHT22;7346;50.846;4.388;2022-10-17T01:50:19;17.50;99.90
14519;DHT22;7346;50.846;4.388;2022-10-17T01:52:49;17.50;99.90
14519;DHT22;7346;50.846;4.388;2022-10-17T01:55:21;17.50;99.90
14519;DHT22;7346;50.846;4.388;2022-10-17T01:57:51;17.50;99.90
14519;DHT22;7346;50.846;4.388;2022-10-17T02:00:22;17.60;99.90
14519;DHT22;7346;50.846;4.388;2022-10-17T02:02:56;17.70;99.90
14519;DHT22;7346;50.846;4.388;2022-10-17T02:05:29;17.70;99.90
14519;DHT22;7346;50.846;4.388;2022-10-17T02:07:59;17.70;99.90
14519;DHT22;7346;50.846;4.388;2022-10-17T02:10:32;17.70;99.90
14519;DHT22;7346;50.846;4.388;2022-10-17T02:13:30;17.90;99.90
14519;DHT22;7346;50.846;4.388;2022-10-17T02:16:12;17.90;99.90
14519;DHT22;7346;50.846;4.388;2022-10-17T02:19:05;17.90;99.90
14519;DHT22;7346;50.846;4.388;2022-10-17T02:21:38;17.90;99.90
14519;DHT22;7346;50.846;4.388;2022-10-17T02:24:17;17.90;99.90
14519;DHT22;7346;50.846;4.388;2022-10-17T02:26:51;17.90;99.90
14519;DHT22;7346;50.846;4.388;2022-10-17T02:29:26;17.90;99.90
14519;DHT22;7346;50.846;4.388;2022-10-17T02:34:47;17.80;99.90
14519;DHT22;7346;50.846;4.388;2022-10-17T02:37:20;17.80;99.90
14519;DHT22;7346;50.846;4.388;2022-10-17T02:39:50;17.80;99.90
14519;DHT22;7346;50.846;4.388;2022-10-17T02:42:17;17.80;99.90
14519;DHT22;7346;50.846;4.388;2022-10-17T02:44:46;17.80;99.90
14519;DHT22;7346;50.846;4.388;2022-10-17T02:47:18;17.80;99.90
14519;DHT22;7346;50.846;4.388;2022-10-17T02:49:50;17.80;99.90
14519;DHT22;7346;50.846;4.388;2022-10-17T02:52:23;17.80;99.90
14519;DHT22;7346;50.846;4.388;2022-10-17T02:54:58;17.80;99.90
14519;DHT22;7346;50.846;4.388;2022-10-17T02:57:28;17.80;99.90
14519;DHT22;7346;50.846;4.388;2022-10-17T02:59:57;17.90;99.90
14519;DHT22;7346;50.846;4.388;2022-10-17T03:02:37;17.90;99.90
14519;DHT22;7346;50.846;4.388;2022-10-17T03:05:07;18.00;99.90
14519;DHT22;7346;50.846;4.388;2022-10-17T03:07:34;18.00;99.90
14519;DHT22;7346;50.846;4.388;2022-10-17T03:10:01;18.00;99.90
14519;DHT22;7346;50.846;4.388;2022-10-17T03:12:27;18.00;99.90
14519;DHT22;7346;50.846;4.388;2022-10-17T03:14:54;18.00;99.90
14519;DHT22;7346;50.846;4.388;2022-10-17T03:17:21;18.10;99.90
14519;DHT22;7346;50.846;4.388;2022-10-17T03:19:48;18.10;99.90
14519;DHT22;7346;50.846;4.388;2022-10-17T03:22:16;18.10;99.90
14519;DHT22;7346;50.846;4.388;2022-10-17T03:24:43;18.10;99.90
14519;DHT22;7346;50.846;4.388;2022-10-17T03:27:10;18.10;99.90
14519;DHT22;7346;50.846;4.388;2022-10-17T03:29:37;18.20;99.90
14519;DHT22;7346;50.846;4.388;2022-10-17T03:32:04;18.20;99.90
14519;DHT22;7346;50.846;4.388;2022-10-17T03:34:31;18.20;99.90
14519;DHT22;7346;50.846;4.388;2022-10-17T03:36:58;18.10;99.90
14519;DHT22;7346;50.846;4.388;2022-10-17T03:39:26;18.10;99.90
14519;DHT22;7346;50.846;4.388;2022-10-17T03:41:53;18.10;99.90
14519;DHT22;7346;50.846;4.388;2022-10-17T03:44:20;18.10;99.90
14519;DHT22;7346;50.846;4.388;2022-10-17T03:46:47;18.10;99.90
14519;DHT22;7346;50.846;4.388;2022-10-17T03:49:14;18.10;99.90
14519;DHT22;7346;50.846;4.388;2022-10-17T03:51:41;18.10;99.90
14519;DHT22;7346;50.846;4.388;2022-10-17T03:54:08;18.10;99.90
14519;DHT22;7346;50.846;4.388;2022-10-17T03:56:37;18.10;99.90
14519;DHT22;7346;50.846;4.388;2022-10-17T03:59:04;18.10;99.90
14519;DHT22;7346;50.846;4.388;2022-10-17T04:01:31;18.10;99.90
14519;DHT22;7346;50.846;4.388;2022-10-17T04:03:58;18.10;99.90
14519;DHT22;7346;50.846;4.388;2022-10-17T04:06:27;18.10;99.90
14519;DHT22;7346;50.846;4.388;2022-10-17T04:08:54;18.10;99.90
14519;DHT22;7346;50.846;4.388;2022-10-17T04:11:21;18.10;99.90
14519;DHT22;7346;50.846;4.388;2022-10-17T04:13:53;18.10;99.90
14519;DHT22;7346;50.846;4.388;2022-10-17T04:16:25;18.10;99.90
14519;DHT22;7346;50.846;4.388;2022-10-17T04:18:52;18.10;99.90
14519;DHT22;7346;50.846;4.388;2022-10-17T04:21:21;18.10;99.90
14519;DHT22;7346;50.846;4.388;2022-10-17T04:23:52;18.10;99.90
14519;DHT22;7346;50.846;4.388;2022-10-17T04:26:22;18.10;99.90
14519;DHT22;7346;50.846;4.388;2022-10-17T04:28:49;18.00;99.90
14519;DHT22;7346;50.846;4.388;2022-10-17T04:31:18;18.10;99.90
14519;DHT22;7346;50.846;4.388;2022-10-17T04:33:46;18.00;99.90
14519;DHT22;7346;50.846;4.388;2022-10-17T04:36:15;18.00;99.90
14519;DHT22;7346;50.846;4.388;2022-10-17T04:38:42;18.10;99.90
14519;DHT22;7346;50.846;4.388;2022-10-17T04:41:11;18.10;99.90
14519;DHT22;7346;50.846;4.388;2022-10-17T04:43:39;18.00;99.90
14519;DHT22;7346;50.846;4.388;2022-10-17T04:46:07;18.00;99.90
14519;DHT22;7346;50.846;4.388;2022-10-17T04:48:37;18.00;99.90
14519;DHT22;7346;50.846;4.388;2022-10-17T04:51:09;18.00;99.90
14519;DHT22;7346;50.846;4.388;2022-10-17T04:53:38;18.00;99.90
14519;DHT22;7346;50.846;4.388;2022-10-17T04:56:09;18.00;99.90
14519;DHT22;7346;50.846;4.388;2022-10-17T04:58:36;18.00;99.90
14519;DHT22;7346;50.846;4.388;2022-10-17T05:01:05;18.00;99.90
14519;DHT22;7346;50.846;4.388;2022-10-17T05:03:33;18.00;99.90
14519;DHT22;7346;50.846;4.388;2022-10-17T05:06:04;18.00;99.90
14519;DHT22;7346;50.846;4.388;2022-10-17T05:08:31;18.00;99.90
14519;DHT22;7346;50.846;4.388;2022-10-17T05:10:58;18.00;99.90
14519;DHT22;7346;50.846;4.388;2022-10-17T05:13:25;18.00;99.90
14519;DHT22;7346;50.846;4.388;2022-10-17T05:15:52;18.00;99.90
14519;DHT22;7346;50.846;4.388;2022-10-17T05:18:19;18.00;99.90
14519;DHT22;7346;50.846;4.388;2022-10-17T05:20:48;18.00;99.90
14519;DHT22;7346;50.846;4.388;2022-10-17T05:23:17;18.00;99.90
14519;DHT22;7346;50.846;4.388;2022-10-17T05:25:44;18.00;99.90
14519;DHT22;7346;50.846;4.388;2022-10-17T05:28:10;18.10;99.90
14519;DHT22;7346;50.846;4.388;2022-10-17T05:30:38;18.10;99.90
14519;DHT22;7346;50.846;4.388;2022-10-17T05:33:06;18.20;99.90
14519;DHT22;7346;50.846;4.388;2022-10-17T05:35:33;18.10;99.90
14519;DHT22;7346;50.846;4.388;2022-10-17T05:38:03;18.10;99.90
14519;DHT22;7346;50.846;4.388;2022-10-17T05:40:31;18.20;99.90
14519;DHT22;7346;50.846;4.388;2022-10-17T05:42:59;18.20;99.90
14519;DHT22;7346;50.846;4.388;2022-10-17T05:45:25;18.10;99.90
14519;DHT22;7346;50.846;4.388;2022-10-17T05:47:55;18.10;99.90
14519;DHT22;7346;50.846;4.388;2022-10-17T05:50:25;18.10;99.90
14519;DHT22;7346;50.846;4.388;2022-10-17T05:52:52;18.10;99.90
14519;DHT22;7346;50.846;4.388;2022-10-17T05:55:20;18.10;99.90
14519;DHT22;7346;50.846;4.388;2022-10-17T05:57:48;18.20;99.90
14519;DHT22;7346;50.846;4.388;2022-10-17T06:00:17;18.20;99.90
14519;DHT22;7346;50.846;4.388;2022-10-17T06:02:44;18.20;99.90
14519;DHT22;7346;50.846;4.388;2022-10-17T06:05:12;18.20;99.90
14519;DHT22;7346;50.846;4.388;2022-10-17T06:07:39;18.20;99.90
14519;DHT22;7346;50.846;4.388;2022-10-17T06:10:07;18.20;99.90
14519;DHT22;7346;50.846;4.388;2022-10-17T06:12:34;18.30;99.90
14519;DHT22;7346;50.846;4.388;2022-10-17T06:15:03;18.20;99.90
14519;DHT22;7346;50.846;4.388;2022-10-17T06:17:32;18.30;99.90
14519;DHT22;7346;50.846;4.388;2022-10-17T06:19:59;18.20;99.90
14519;DHT22;7346;50.846;4.388;2022-10-17T06:22:27;18.30;99.90
14519;DHT22;7346;50.846;4.388;2022-10-17T06:24:54;18.30;99.90
14519;DHT22;7346;50.846;4.388;2022-10-17T06:27:21;18.30;99.90
14519;DHT22;7346;50.846;4.388;2022-10-17T06:29:48;18.30;99.90
14519;DHT22;7346;50.846;4.388;2022-10-17T06:32:17;18.30;99.90
14519;DHT22;7346;50.846;4.388;2022-10-17T06:34:44;18.30;99.90
14519;DHT22;7346;50.846;4.388;2022-10-17T06:37:10;18.30;99.90
14519;DHT22;7346;50.846;4.388;2022-10-17T06:39:38;18.40;99.90
14519;DHT22;7346;50.846;4.388;2022-10-17T06:42:05;18.40;99.90
14519;DHT22;7346;50.846;4.388;2022-10-17T06:44:31;18.40;99.90
14519;DHT22;7346;50.846;4.388;2022-10-17T06:46:59;18.40;99.90
14519;DHT22;7346;50.846;4.388;2022-10-17T06:49:27;18.40;99.90
14519;DHT22;7346;50.846;4.388;2022-10-17T06:51:54;18.50;99.90
14519;DHT22;7346;50.846;4.388;2022-10-17T06:54:21;18.40;99.90
14519;DHT22;7346;50.846;4.388;2022-10-17T06:56:48;18.50;99.90
14519;DHT22;7346;50.846;4.388;2022-10-17T06:59:15;18.50;99.90
14519;DHT22;7346;50.846;4.388;2022-10-17T07:01:43;18.60;99.90
14519;DHT22;7346;50.846;4.388;2022-10-17T07:04:10;18.70;99.90
14519;DHT22;7346;50.846;4.388;2022-10-17T07:06:38;18.70;99.90
14519;DHT22;7346;50.846;4.388;2022-10-17T07:09:05;18.80;99.90
14519;DHT22;7346;50.846;4.388;2022-10-17T07:11:33;18.80;99.90
14519;DHT22;7346;50.846;4.388;2022-10-17T07:14:00;18.80;99.90
14519;DHT22;7346;50.846;4.388;2022-10-17T07:16:28;18.80;99.90
14519;DHT22;7346;50.846;4.388;2022-10-17T07:18:55;18.80;99.90
14519;DHT22;7346;50.846;4.388;2022-10-17T07:21:22;18.80;99.90
14519;DHT22;7346;50.846;4.388;2022-10-17T07:23:50;18.80;99.90
14519;DHT22;7346;50.846;4.388;2022-10-17T07:26:18;18.80;99.90
14519;DHT22;7346;50.846;4.388;2022-10-17T07:28:49;18.90;99.90
14519;DHT22;7346;50.846;4.388;2022-10-17T07:31:18;18.80;99.90
14519;DHT22;7346;50.846;4.388;2022-10-17T07:33:45;18.80;99.90
14519;DHT22;7346;50.846;4.388;2022-10-17T07:36:13;18.80;99.90
14519;DHT22;7346;50.846;4.388;2022-10-17T07:38:40;18.70;99.90
14519;DHT22;7346;50.846;4.388;2022-10-17T07:41:10;18.60;99.90
14519;DHT22;7346;50.846;4.388;2022-10-17T07:43:39;18.50;99.90
14519;DHT22;7346;50.846;4.388;2022-10-17T07:46:08;18.40;99.90
14519;DHT22;7346;50.846;4.388;2022-10-17T07:48:36;18.30;99.90
14519;DHT22;7346;50.846;4.388;2022-10-17T07:51:06;18.20;99.90
14519;DHT22;7346;50.846;4.388;2022-10-17T07:53:35;18.20;99.90
14519;DHT22;7346;50.846;4.388;2022-10-17T07:56:06;18.20;99.90
14519;DHT22;7346;50.846;4.388;2022-10-17T07:58:35;18.20;99.90
14519;DHT22;7346;50.846;4.388;2022-10-17T08:01:04;18.20;99.90
14519;DHT22;7346;50.846;4.388;2022-10-17T08:03:31;18.20;99.90
14519;DHT22;7346;50.846;4.388;2022-10-17T08:05:59;18.20;99.90
14519;DHT22;7346;50.846;4.388;2022-10-17T08:08:26;18.30;99.90
14519;DHT22;7346;50.846;4.388;2022-10-17T08:10:54;18.30;99.90
14519;DHT22;7346;50.846;4.388;2022-10-17T08:13:21;18.20;99.90
14519;DHT22;7346;50.846;4.388;2022-10-17T08:15:50;18.20;99.90
14519;DHT22;7346;50.846;4.388;2022-10-17T08:18:17;18.20;99.90
14519;DHT22;7346;50.846;4.388;2022-10-17T08:20:44;18.10;99.90
14519;DHT22;7346;50.846;4.388;2022-10-17T08:23:11;18.00;99.90
14519;DHT22;7346;50.846;4.388;2022-10-17T08:25:38;18.00;99.90
14519;DHT22;7346;50.846;4.388;2022-10-17T08:28:05;17.90;99.90
14519;DHT22;7346;50.846;4.388;2022-10-17T08:30:32;18.00;99.90
14519;DHT22;7346;50.846;4.388;2022-10-17T08:33:00;18.10;99.90
14519;DHT22;7346;50.846;4.388;2022-10-17T08:35:27;18.20;99.90
14519;DHT22;7346;50.846;4.388;2022-10-17T08:37:54;18.40;99.90
14519;DHT22;7346;50.846;4.388;2022-10-17T08:40:27;18.60;99.90
14519;DHT22;7346;50.846;4.388;2022-10-17T08:43:09;18.70;99.90
14519;DHT22;7346;50.846;4.388;2022-10-17T08:45:43;18.70;99.90
14519;DHT22;7346;50.846;4.388;2022-10-17T08:48:16;18.70;99.90
14519;DHT22;7346;50.846;4.388;2022-10-17T08:50:47;18.80;99.90
14519;DHT22;7346;50.846;4.388;2022-10-17T08:53:21;19.00;99.90
14519;DHT22;7346;50.846;4.388;2022-10-17T08:55:51;19.20;99.90
14519;DHT22;7346;50.846;4.388;2022-10-17T08:58:20;19.30;99.90
14519;DHT22;7346;50.846;4.388;2022-10-17T09:00:54;19.30;99.90
14519;DHT22;7346;50.846;4.388;2022-10-17T09:03:48;19.00;99.90
14519;DHT22;7346;50.846;4.388;2022-10-17T09:06:20;18.70;99.90
14519;DHT22;7346;50.846;4.388;2022-10-17T09:09:02;18.60;99.90
14519;DHT22;7346;50.846;4.388;2022-10-17T09:11:51;18.40;99.90
14519;DHT22;7346;50.846;4.388;2022-10-17T09:14:42;18.50;99.90
14519;DHT22;7346;50.846;4.388;2022-10-17T09:17:20;18.40;99.90
14519;DHT22;7346;50.846;4.388;2022-10-17T09:19:58;18.40;99.90
14519;DHT22;7346;50.846;4.388;2022-10-17T09:22:29;18.40;99.90
14519;DHT22;7346;50.846;4.388;2022-10-17T09:24:59;18.30;99.90
14519;DHT22;7346;50.846;4.388;2022-10-17T09:27:33;18.30;99.90
14519;DHT22;7346;50.846;4.388;2022-10-17T09:30:19;18.30;99.90
14519;DHT22;7346;50.846;4.388;2022-10-17T09:32:46;18.20;99.90
14519;DHT22;7346;50.846;4.388;2022-10-17T09:35:16;18.10;99.90
14519;DHT22;7346;50.846;4.388;2022-10-17T09:37:46;18.20;99.90
14519;DHT22;7346;50.846;4.388;2022-10-17T09:40:18;18.10;99.90
14519;DHT22;7346;50.846;4.388;2022-10-17T09:42:49;18.10;99.90
14519;DHT22;7346;50.846;4.388;2022-10-17T09:45:20;18.20;99.90
14519;DHT22;7346;50.846;4.388;2022-10-17T09:47:56;18.30;99.90
14519;DHT22;7346;50.846;4.388;2022-10-17T09:50:30;18.40;99.90
14519;DHT22;7346;50.846;4.388;2022-10-17T09:53:00;18.50;99.90
14519;DHT22;7346;50.846;4.388;2022-10-17T09:55:36;18.50;99.90
14519;DHT22;7346;50.846;4.388;2022-10-17T09:58:05;18.50;99.90
14519;DHT22;7346;50.846;4.388;2022-10-17T10:00:34;18.40;99.90
14519;DHT22;7346;50.846;4.388;2022-10-17T10:03:12;18.40;99.90
14519;DHT22;7346;50.846;4.388;2022-10-17T10:05:42;18.50;99.90
14519;DHT22;7346;50.846;4.388;2022-10-17T10:08:14;18.40;99.90
14519;DHT22;7346;50.846;4.388;2022-10-17T10:10:42;18.40;99.90
14519;DHT22;7346;50.846;4.388;2022-10-17T10:13:17;18.40;99.90
14519;DHT22;7346;50.846;4.388;2022-10-17T10:15:47;18.40;99.90
14519;DHT22;7346;50.846;4.388;2022-10-17T10:18:29;18.40;99.90
14519;DHT22;7346;50.846;4.388;2022-10-17T10:21:12;18.40;99.90
14519;DHT22;7346;50.846;4.388;2022-10-17T10:23:40;18.40;99.90
14519;DHT22;7346;50.846;4.388;2022-10-17T10:26:26;18.30;99.90
14519;DHT22;7346;50.846;4.388;2022-10-17T10:28:56;18.30;99.90
14519;DHT22;7346;50.846;4.388;2022-10-17T10:31:29;18.40;99.90
14519;DHT22;7346;50.846;4.388;2022-10-17T10:33:59;18.50;99.90
14519;DHT22;7346;50.846;4.388;2022-10-17T10:36:44;18.60;99.90
14519;DHT22;7346;50.846;4.388;2022-10-17T10:39:33;18.80;99.90
14519;DHT22;7346;50.846;4.388;2022-10-17T10:42:03;18.80;99.90
14519;DHT22;7346;50.846;4.388;2022-10-17T10:44:32;18.90;99.90
14519;DHT22;7346;50.846;4.388;2022-10-17T10:47:14;18.80;99.90
14519;DHT22;7346;50.846;4.388;2022-10-17T10:49:42;18.80;99.90
14519;DHT22;7346;50.846;4.388;2022-10-17T10:52:18;18.90;99.90
14519;DHT22;7346;50.846;4.388;2022-10-17T10:54:53;18.80;99.90
14519;DHT22;7346;50.846;4.388;2022-10-17T10:57:24;18.70;99.90
14519;DHT22;7346;50.846;4.388;2022-10-17T10:59:59;18.70;99.90
14519;DHT22;7346;50.846;4.388;2022-10-17T11:02:34;18.60;99.90
14519;DHT22;7346;50.846;4.388;2022-10-17T11:05:05;18.60;99.90
14519;DHT22;7346;50.846;4.388;2022-10-17T11:07:42;18.60;99.90
14519;DHT22;7346;50.846;4.388;2022-10-17T11:10:14;18.50;99.90
14519;DHT22;7346;50.846;4.388;2022-10-17T11:12:47;18.50;99.90
14519;DHT22;7346;50.846;4.388;2022-10-17T11:15:20;18.40;99.90
14519;DHT22;7346;50.846;4.388;2022-10-17T11:17:54;18.50;99.90
14519;DHT22;7346;50.846;4.388;2022-10-17T11:20:29;18.50;99.90
14519;DHT22;7346;50.846;4.388;2022-10-17T11:23:15;18.50;99.90
14519;DHT22;7346;50.846;4.388;2022-10-17T11:25:47;18.50;99.90
14519;DHT22;7346;50.846;4.388;2022-10-17T11:28:17;18.50;99.90
14519;DHT22;7346;50.846;4.388;2022-10-17T11:30:48;18.50;99.90
14519;DHT22;7346;50.846;4.388;2022-10-17T11:33:23;18.50;99.90
14519;DHT22;7346;50.846;4.388;2022-10-17T11:35:53;18.50;99.90
14519;DHT22;7346;50.846;4.388;2022-10-17T11:38:29;18.50;99.90
14519;DHT22;7346;50.846;4.388;2022-10-17T11:40:59;18.40;99.90
14519;DHT22;7346;50.846;4.388;2022-10-17T11:43:29;18.40;99.90
14519;DHT22;7346;50.846;4.388;2022-10-17T11:46:02;18.60;99.90
14519;DHT22;7346;50.846;4.388;2022-10-17T11:48:34;18.60;99.90
14519;DHT22;7346;50.846;4.388;2022-10-17T11:51:08;18.70;99.90
14519;DHT22;7346;50.846;4.388;2022-10-17T11:53:45;18.70;99.90
14519;DHT22;7346;50.846;4.388;2022-10-17T11:56:16;18.90;99.90
14519;DHT22;7346;50.846;4.388;2022-10-17T11:58:49;18.80;99.90
14519;DHT22;7346;50.846;4.388;2022-10-17T12:01:23;18.80;99.90
14519;DHT22;7346;50.846;4.388;2022-10-17T12:04:11;18.70;99.90
14519;DHT22;7346;50.846;4.388;2022-10-17T12:06:52;18.80;99.90
14519;DHT22;7346;50.846;4.388;2022-10-17T12:09:29;18.80;99.90
14519;DHT22;7346;50.846;4.388;2022-10-17T12:12:02;18.80;99.90
14519;DHT22;7346;50.846;4.388;2022-10-17T12:14:40;18.80;99.90
14519;DHT22;7346;50.846;4.388;2022-10-17T12:17:30;18.90;99.90
14519;DHT22;7346;50.846;4.388;2022-10-17T12:20:32;19.10;99.90
14519;DHT22;7346;50.846;4.388;2022-10-17T12:26:04;18.90;99.90
14519;DHT22;7346;50.846;4.388;2022-10-17T12:28:33;18.80;99.90
14519;DHT22;7346;50.846;4.388;2022-10-17T12:31:09;18.80;99.90
14519;DHT22;7346;50.846;4.388;2022-10-17T12:33:47;18.80;99.90
14519;DHT22;7346;50.846;4.388;2022-10-17T12:36:45;18.80;99.90
14519;DHT22;7346;50.846;4.388;2022-10-17T12:42:31;18.80;99.90
14519;DHT22;7346;50.846;4.388;2022-10-17T12:44:59;18.80;99.90
14519;DHT22;7346;50.846;4.388;2022-10-17T12:47:34;18.90;99.90
14519;DHT22;7346;50.846;4.388;2022-10-17T12:50:03;19.00;99.90
14519;DHT22;7346;50.846;4.388;2022-10-17T12:52:59;19.10;99.90
14519;DHT22;7346;50.846;4.388;2022-10-17T12:55:30;19.10;99.90
14519;DHT22;7346;50.846;4.388;2022-10-17T12:58:00;19.00;99.90
14519;DHT22;7346;50.846;4.388;2022-10-17T13:00:34;19.00;99.90
14519;DHT22;7346;50.846;4.388;2022-10-17T13:03:05;19.00;99.90
14519;DHT22;7346;50.846;4.388;2022-10-17T13:05:38;19.10;99.90
14519;DHT22;7346;50.846;4.388;2022-10-17T13:08:07;19.10;99.90
14519;DHT22;7346;50.846;4.388;2022-10-17T13:10:40;19.10;99.90
14519;DHT22;7346;50.846;4.388;2022-10-17T13:13:16;19.20;99.90
14519;DHT22;7346;50.846;4.388;2022-10-17T13:15:45;19.30;99.90
14519;DHT22;7346;50.846;4.388;2022-10-17T13:18:20;19.40;99.90
14519;DHT22;7346;50.846;4.388;2022-10-17T13:20:55;19.40;99.90
14519;DHT22;7346;50.846;4.388;2022-10-17T13:23:28;19.50;99.90
14519;DHT22;7346;50.846;4.388;2022-10-17T13:26:14;19.50;99.90
14519;DHT22;7346;50.846;4.388;2022-10-17T13:28:42;19.70;99.90
14519;DHT22;7346;50.846;4.388;2022-10-17T13:31:27;19.70;99.90
14519;DHT22;7346;50.846;4.388;2022-10-17T13:33:56;19.70;99.90
14519;DHT22;7346;50.846;4.388;2022-10-17T13:36:25;19.70;99.90
14519;DHT22;7346;50.846;4.388;2022-10-17T13:38:53;19.70;99.90
14519;DHT22;7346;50.846;4.388;2022-10-17T13:41:24;19.60;99.90
14519;DHT22;7346;50.846;4.388;2022-10-17T13:43:55;19.50;99.90
14519;DHT22;7346;50.846;4.388;2022-10-17T13:46:26;19.50;99.90
14519;DHT22;7346;50.846;4.388;2022-10-17T13:48:55;19.40;99.90
14519;DHT22;7346;50.846;4.388;2022-10-17T13:51:22;19.50;99.90
14519;DHT22;7346;50.846;4.388;2022-10-17T13:53:49;19.60;99.90
14519;DHT22;7346;50.846;4.388;2022-10-17T13:56:19;19.70;99.90
14519;DHT22;7346;50.846;4.388;2022-10-17T13:58:47;19.70;99.90
14519;DHT22;7346;50.846;4.388;2022-10-17T14:01:16;19.70;99.90
14519;DHT22;7346;50.846;4.388;2022-10-17T14:03:45;19.60;99.90
14519;DHT22;7346;50.846;4.388;2022-10-17T14:06:17;19.60;99.90
14519;DHT22;7346;50.846;4.388;2022-10-17T14:08:53;19.60;99.90
14519;DHT22;7346;50.846;4.388;2022-10-17T14:11:29;19.60;99.90
14519;DHT22;7346;50.846;4.388;2022-10-17T14:13:59;19.60;99.90
14519;DHT22;7346;50.846;4.388;2022-10-17T14:16:34;19.50;99.90
14519;DHT22;7346;50.846;4.388;2022-10-17T14:19:02;19.50;99.90
14519;DHT22;7346;50.846;4.388;2022-10-17T14:21:29;19.40;99.90
14519;DHT22;7346;50.846;4.388;2022-10-17T14:24:26;19.50;99.90
14519;DHT22;7346;50.846;4.388;2022-10-17T14:26:55;19.50;99.90
14519;DHT22;7346;50.846;4.388;2022-10-17T14:29:25;19.60;99.90
14519;DHT22;7346;50.846;4.388;2022-10-17T14:32:03;19.60;99.90
14519;DHT22;7346;50.846;4.388;2022-10-17T14:34:33;19.70;99.90
14519;DHT22;7346;50.846;4.388;2022-10-17T14:37:02;19.70;99.90
14519;DHT22;7346;50.846;4.388;2022-10-17T14:39:34;19.70;99.90
14519;DHT22;7346;50.846;4.388;2022-10-17T14:42:01;19.60;99.90
14519;DHT22;7346;50.846;4.388;2022-10-17T14:44:30;19.60;99.90
14519;DHT22;7346;50.846;4.388;2022-10-17T14:47:01;19.60;99.90
14519;DHT22;7346;50.846;4.388;2022-10-17T14:49:36;19.60;99.90
14519;DHT22;7346;50.846;4.388;2022-10-17T14:52:27;19.70;99.90
14519;DHT22;7346;50.846;4.388;2022-10-17T14:54:55;19.80;99.90
14519;DHT22;7346;50.846;4.388;2022-10-17T14:57:25;19.70;99.90
14519;DHT22;7346;50.846;4.388;2022-10-17T14:59:55;19.70;99.90
14519;DHT22;7346;50.846;4.388;2022-10-17T15:02:24;19.70;99.90
14519;DHT22;7346;50.846;4.388;2022-10-17T15:04:51;19.70;99.90
14519;DHT22;7346;50.846;4.388;2022-10-17T15:07:21;19.80;99.90
14519;DHT22;7346;50.846;4.388;2022-10-17T15:09:52;19.80;99.90
14519;DHT22;7346;50.846;4.388;2022-10-17T15:12:23;19.70;99.90
14519;DHT22;7346;50.846;4.388;2022-10-17T15:14:50;19.60;99.90
14519;DHT22;7346;50.846;4.388;2022-10-17T15:17:18;19.60;99.90
14519;DHT22;7346;50.846;4.388;2022-10-17T15:19:47;19.60;99.90
14519;DHT22;7346;50.846;4.388;2022-10-17T15:22:15;19.40;99.90
14519;DHT22;7346;50.846;4.388;2022-10-17T15:24:42;19.50;99.90
14519;DHT22;7346;50.846;4.388;2022-10-17T15:27:14;19.40;99.90
14519;DHT22;7346;50.846;4.388;2022-10-17T15:29:41;19.40;99.90
14519;DHT22;7346;50.846;4.388;2022-10-17T15:32:09;19.40;99.90
14519;DHT22;7346;50.846;4.388;2022-10-17T15:34:36;19.40;99.90
14519;DHT22;7346;50.846;4.388;2022-10-17T15:37:05;19.40;99.90
14519;DHT22;7346;50.846;4.388;2022-10-17T15:39:32;19.50;99.90
14519;DHT22;7346;50.846;4.388;2022-10-17T15:42:00;19.40;99.90
14519;DHT22;7346;50.846;4.388;2022-10-17T15:44:27;19.40;99.90
14519;DHT22;7346;50.846;4.388;2022-10-17T15:46:55;19.50;99.90
14519;DHT22;7346;50.846;4.388;2022-10-17T15:49:22;19.50;99.90
14519;DHT22;7346;50.846;4.388;2022-10-17T15:51:49;19.40;99.90
14519;DHT22;7346;50.846;4.388;2022-10-17T15:54:18;19.40;99.90
14519;DHT22;7346;50.846;4.388;2022-10-17T15:56:51;19.30;99.90
14519;DHT22;7346;50.846;4.388;2022-10-17T15:59:21;19.40;99.90
14519;DHT22;7346;50.846;4.388;2022-10-17T16:01:48;19.30;99.90
14519;DHT22;7346;50.846;4.388;2022-10-17T16:04:15;19.20;99.90
14519;DHT22;7346;50.846;4.388;2022-10-17T16:06:43;19.10;99.90
14519;DHT22;7346;50.846;4.388;2022-10-17T16:09:10;19.10;99.90
14519;DHT22;7346;50.846;4.388;2022-10-17T16:11:40;19.20;99.90
14519;DHT22;7346;50.846;4.388;2022-10-17T16:14:10;19.20;99.90
14519;DHT22;7346;50.846;4.388;2022-10-17T16:16:38;19.20;99.90
14519;DHT22;7346;50.846;4.388;2022-10-17T16:19:05;19.20;99.90
14519;DHT22;7346;50.846;4.388;2022-10-17T16:21:34;19.30;99.90
14519;DHT22;7346;50.846;4.388;2022-10-17T16:24:02;19.30;99.90
14519;DHT22;7346;50.846;4.388;2022-10-17T16:26:29;19.30;99.90